Kiyosumi — JD3691 — position and weather

sailwx.info

Track history (hours):
 
Tides and Currents Weather Stations Pressure Air Temp Water Temp Dewpoint Dewpoint Depression Visibility Wind Speed Wind Dir Waves Ship Positions

Kiyosumi

Last reported at 2017-Nov-17 21:01 UTC. Time now 2017-Nov-17 21:17 UTC.
Position N 35°27' E 139°40'.

Length 34 m; draft 3.5 m.

Type: Tug. MMSI: 431005532.

Date/timePositionNaut miles runAvg speedWind from/ knotsBaromVisibWave heightAir tempDewpointWater temp
2017-Nov-17 21:01N 35°27' E 139°40'0 0.0
2017-Nov-17 20:31N 35°27' E 139°40'0 0.0
2017-Nov-17 20:00N 35°27' E 139°40'0 0.0
2017-Nov-17 19:30N 35°27' E 139°40'0 0.0
2017-Nov-17 19:00N 35°27' E 139°40'0 0.0
2017-Nov-17 18:31N 35°27' E 139°40'0 0.0
2017-Nov-17 18:01N 35°27' E 139°40'0 0.0
2017-Nov-17 17:30N 35°27' E 139°40'0 0.0
2017-Nov-17 17:00N 35°27' E 139°40'0 0.0
2017-Nov-17 16:30N 35°27' E 139°40'0 0.0
2017-Nov-17 16:01N 35°27' E 139°40'0 0.0
2017-Nov-17 15:30N 35°27' E 139°40'0 0.0
2017-Nov-17 15:00N 35°27' E 139°40'0 0.0
2017-Nov-17 14:31N 35°27' E 139°40'0 0.0
2017-Nov-17 14:01N 35°27' E 139°40'0 0.0
2017-Nov-17 13:31N 35°27' E 139°40'0 0.0
2017-Nov-17 13:01N 35°27' E 139°40'0 0.0
2017-Nov-17 12:31N 35°27' E 139°40'0 0.0
2017-Nov-17 12:00N 35°27' E 139°40'0 0.0
2017-Nov-17 11:31N 35°27' E 139°40'0 0.0
2017-Nov-17 11:00N 35°27' E 139°40'0 0.0
2017-Nov-17 10:30N 35°27' E 139°40'0 0.0
2017-Nov-17 10:01N 35°27' E 139°40'0 0.0
2017-Nov-17 09:30N 35°27' E 139°40'0 0.0
2017-Nov-17 09:01N 35°27' E 139°40'0 0.0
2017-Nov-17 08:31N 35°27' E 139°40'0 0.0
2017-Nov-17 08:01N 35°27' E 139°40'0 0.0
2017-Nov-17 07:31N 35°27' E 139°40'0 0.0
2017-Nov-17 07:01N 35°27' E 139°40'0 0.0
2017-Nov-17 06:31N 35°27' E 139°40'0 0.0
2017-Nov-17 06:01N 35°27' E 139°40'0 0.0
2017-Nov-17 05:30N 35°27' E 139°40'0 0.0
2017-Nov-17 05:01N 35°27' E 139°40'0 0.0
2017-Nov-17 04:30N 35°27' E 139°40'0 0.0
2017-Nov-17 04:00N 35°27' E 139°40'0 0.0
2017-Nov-17 03:31N 35°27' E 139°40'0 0.0
2017-Nov-17 03:01N 35°27' E 139°40'0 0.0
2017-Nov-17 02:30N 35°27' E 139°40'0 0.0
2017-Nov-17 02:00N 35°27' E 139°40'0 0.0
2017-Nov-17 01:31N 35°27' E 139°40'0 0.0
2017-Nov-17 01:00N 35°27' E 139°40'0 0.0
2017-Nov-17 00:31N 35°27' E 139°40'0 0.0
2017-Nov-17 00:00N 35°27' E 139°40'0 0.0
2017-Nov-16 23:30N 35°27' E 139°40'0 0.3
2017-Nov-16 23:00N 35°27' E 139°40'1 2.2
2017-Nov-16 22:31N 35°27' E 139°41'3 6.4
2017-Nov-16 22:00N 35°26' E 139°45'2 3.5
2017-Nov-16 21:30N 35°26' E 139°43'1 1.6
2017-Nov-16 21:01N 35°26' E 139°42'3 5.2
2017-Nov-16 20:30N 35°24' E 139°40'1 1.2
2017-Nov-16 20:00N 35°24' E 139°41'0 0.3
2017-Nov-16 19:31N 35°24' E 139°41'2 4.6
2017-Nov-16 19:00N 35°26' E 139°42'2 3.7
2017-Nov-16 18:30N 35°27' E 139°39'0 0.0
2017-Nov-16 18:00N 35°27' E 139°39'0 0.0
2017-Nov-16 17:30N 35°27' E 139°39'0 0.0
2017-Nov-16 17:00N 35°27' E 139°39'0 0.0
2017-Nov-16 16:30N 35°27' E 139°39'0 0.0
2017-Nov-16 16:00N 35°27' E 139°39'0 0.0
2017-Nov-16 15:30N 35°27' E 139°39'0 0.0
2017-Nov-16 15:00N 35°27' E 139°39'0 0.0
2017-Nov-16 14:30N 35°27' E 139°39'0 0.0
2017-Nov-16 14:00N 35°27' E 139°39'0 0.0
2017-Nov-16 13:30N 35°27' E 139°39'0 0.0
2017-Nov-16 13:00N 35°27' E 139°39'0 0.0
2017-Nov-16 12:30N 35°27' E 139°39'2 4.7
2017-Nov-16 12:00N 35°26' E 139°42'3 5.6
2017-Nov-16 11:31N 35°24' E 139°39'1 1.4
2017-Nov-16 11:00N 35°24' E 139°38'0 0.2
2017-Nov-16 10:30N 35°24' E 139°38'0 0.2
2017-Nov-16 10:00N 35°24' E 139°38'2 4.4
2017-Nov-16 09:30N 35°24' E 139°41'0 0.0
2017-Nov-16 09:01N 35°24' E 139°41'1 2.2
2017-Nov-16 08:30N 35°23' E 139°41'1 1.4
2017-Nov-16 08:00N 35°23' E 139°42'4 8.2
2017-Nov-16 07:30N 35°27' E 139°40'0 0.8
2017-Nov-16 07:00N 35°27' E 139°40'0 0.0
2017-Nov-16 06:30N 35°27' E 139°40'0 0.0
2017-Nov-16 06:00N 35°27' E 139°40'0 0.0
2017-Nov-16 05:30N 35°27' E 139°40'0 0.0
2017-Nov-16 05:00N 35°27' E 139°40'0 0.0
2017-Nov-16 04:30N 35°27' E 139°40'0 0.0
2017-Nov-16 04:00N 35°27' E 139°40'0 0.0
2017-Nov-16 03:30N 35°27' E 139°40'0 0.0
2017-Nov-16 03:00N 35°27' E 139°40'0 0.0
2017-Nov-16 02:30N 35°27' E 139°40'0 0.0
2017-Nov-16 02:00N 35°27' E 139°40'0 0.0
2017-Nov-16 01:30N 35°27' E 139°40'0 0.0
2017-Nov-16 01:00N 35°27' E 139°40'0 0.0
2017-Nov-16 00:30N 35°27' E 139°40'0 0.0
2017-Nov-16 00:00N 35°27' E 139°40'0 0.0
2017-Nov-15 23:30N 35°27' E 139°40'0 0.0
2017-Nov-15 23:00N 35°27' E 139°40'0 0.0
2017-Nov-15 22:30N 35°27' E 139°40'0 0.0
2017-Nov-15 05:42N 35°27' E 139°40'1 6.9
2017-Nov-15 05:31N 35°27' E 139°41'3 6.5
2017-Nov-15 05:00N 35°29' E 139°44'0 0.1
2017-Nov-15 04:30N 35°29' E 139°44'2 4.7
2017-Nov-15 04:00N 35°28' E 139°42'0 0.0
2017-Nov-15 03:31N 35°27' E 139°42'0 0.0
2017-Nov-15 03:00N 35°28' E 139°42'0 0.0
2017-Nov-15 02:31N 35°28' E 139°42'0 0.5
2017-Nov-15 02:00N 35°28' E 139°42'3 5.8
2017-Nov-15 01:30N 35°30' E 139°44'2 3.5
2017-Nov-15 01:00N 35°31' E 139°46'0 0.0
2017-Nov-15 00:31N 35°31' E 139°46'0 0.1
2017-Nov-15 00:00N 35°31' E 139°46'0 0.4
2017-Nov-14 23:30N 35°31' E 139°46'4 8.0
2017-Nov-14 23:00N 35°29' E 139°42'2 4.8
2017-Nov-14 22:31N 35°27' E 139°40'0 0.9
2017-Nov-14 22:00N 35°27' E 139°39'0 0.0
2017-Nov-14 21:31N 35°27' E 139°39'0 0.0
2017-Nov-14 21:01N 35°27' E 139°39'0 0.0
2017-Nov-14 20:30N 35°27' E 139°39'0 0.0
2017-Nov-14 20:01N 35°27' E 139°39'0 0.0
2017-Nov-14 19:30N 35°27' E 139°39'0 0.0
2017-Nov-14 19:00N 35°27' E 139°39'0 0.0
2017-Nov-14 18:30N 35°27' E 139°39'0 0.0
2017-Nov-14 18:01N 35°27' E 139°39'0 0.0
2017-Nov-14 17:30N 35°27' E 139°39'0 0.0
2017-Nov-14 17:00N 35°27' E 139°39'0 0.0
2017-Nov-14 16:30N 35°27' E 139°39'0 0.0
2017-Nov-14 16:01N 35°27' E 139°39'0 0.0
2017-Nov-14 15:30N 35°27' E 139°39'0 0.0
2017-Nov-14 15:00N 35°27' E 139°39'0 0.0
2017-Nov-14 14:30N 35°27' E 139°39'0 0.0
2017-Nov-14 14:00N 35°27' E 139°39'0 0.0
2017-Nov-14 13:31N 35°27' E 139°39'0 0.0
2017-Nov-14 13:01N 35°27' E 139°39'0 0.0
2017-Nov-14 12:30N 35°27' E 139°39'0 0.0
2017-Nov-14 12:00N 35°27' E 139°39'0 0.0
2017-Nov-14 11:31N 35°27' E 139°39'0 0.0
2017-Nov-14 11:00N 35°27' E 139°39'0 0.0
2017-Nov-14 10:30N 35°27' E 139°39'0 0.0
2017-Nov-14 10:00N 35°27' E 139°39'0 0.0
2017-Nov-14 09:30N 35°27' E 139°39'0 0.0
2017-Nov-14 09:00N 35°27' E 139°39'0 0.0
2017-Nov-14 08:30N 35°27' E 139°39'0 0.0
2017-Nov-14 08:01N 35°27' E 139°39'0 0.0
2017-Nov-14 07:30N 35°27' E 139°39'0 0.0
2017-Nov-14 07:00N 35°27' E 139°39'0 0.0
2017-Nov-14 06:31N 35°27' E 139°39'0 0.0
2017-Nov-14 06:00N 35°27' E 139°39'0 0.0
2017-Nov-14 05:30N 35°27' E 139°39'0 0.0
2017-Nov-14 05:01N 35°27' E 139°39'0 0.0
2017-Nov-14 04:30N 35°27' E 139°39'0 0.0
2017-Nov-14 04:00N 35°27' E 139°39'0 0.0
2017-Nov-14 03:31N 35°27' E 139°39'0 0.0
2017-Nov-14 03:01N 35°27' E 139°39'0 0.0
2017-Nov-14 02:30N 35°27' E 139°39'0 0.0
2017-Nov-14 02:00N 35°27' E 139°39'0 0.0
2017-Nov-14 01:31N 35°27' E 139°39'3 6.2
2017-Nov-14 01:00N 35°27' E 139°43'2 3.9
2017-Nov-14 00:31N 35°29' E 139°44'0 0.3
2017-Nov-14 00:00N 35°29' E 139°45'1 2.9
2017-Nov-13 23:31N 35°28' E 139°46'0 1.0
2017-Nov-13 23:01N 35°27' E 139°46'2 3.7
2017-Nov-13 22:30N 35°29' E 139°45'0 0.4
2017-Nov-13 22:00N 35°29' E 139°44'3 0.2
2017-Nov-13 02:00N 35°28' E 139°41'510.5
2017-Nov-13 01:31N 35°31' E 139°46'1 1.1
2017-Nov-13 01:00N 35°31' E 139°46'0 0.1
2017-Nov-13 00:30N 35°31' E 139°46'2 3.1
2017-Nov-13 00:00N 35°30' E 139°47'2 3.7
2017-Nov-12 23:30N 35°28' E 139°47'1 1.7
2017-Nov-12 23:00N 35°28' E 139°47'4 8.3
2017-Nov-12 22:30N 35°27' E 139°42'2 3.8
2017-Nov-12 22:00N 35°27' E 139°40'0 0.0
2017-Nov-12 21:30N 35°27' E 139°40'0 0.0
2017-Nov-12 21:00N 35°27' E 139°40'0 0.0
2017-Nov-12 08:40N 35°27' E 139°40'1 8.8
2017-Nov-12 08:31N 35°28' E 139°41'0 0.3
2017-Nov-12 08:00N 35°28' E 139°41'1 2.3
2017-Nov-12 07:30N 35°28' E 139°42'3 5.6
2017-Nov-12 07:00N 35°26' E 139°45'2 3.9
2017-Nov-12 06:31N 35°28' E 139°44'0 0.0
2017-Nov-12 06:00N 35°28' E 139°44'0 0.0
2017-Nov-12 05:31N 35°28' E 139°44'0 0.0
2017-Nov-12 05:00N 35°28' E 139°44'2 4.0
2017-Nov-12 04:31N 35°28' E 139°46'5 9.6
2017-Nov-12 04:01N 35°30' E 139°52'5 8.6
2017-Nov-12 03:22N 35°28' E 139°58'0 0.2
2017-Nov-12 03:00N 35°28' E 139°58'0 0.0
2017-Nov-12 02:18N 35°28' E 139°58'0 1.0
2017-Nov-12 01:58N 35°29' E 139°58'2 3.7
2017-Nov-12 01:28N 35°30' E 139°56'2 3.7
2017-Nov-12 00:55N 35°29' E 139°54'0 0.0
2017-Nov-12 00:30N 35°29' E 139°54'0 0.0
2017-Nov-12 00:00N 35°29' E 139°54'0 0.1
2017-Nov-11 23:30N 35°29' E 139°54'3 6.5
2017-Nov-11 22:59N 35°28' E 139°50'3 7.2
2017-Nov-11 22:31N 35°28' E 139°46'1 2.0
2017-Nov-11 22:00N 35°29' E 139°45'1 3.0
2017-Nov-11 21:30N 35°28' E 139°45'1 1.0
2017-Nov-11 21:00N 35°28' E 139°46'3 6.9
2017-Nov-11 20:31N 35°27' E 139°42'2 3.4
2017-Nov-11 20:01N 35°27' E 139°40'0 0.0
2017-Nov-11 19:30N 35°27' E 139°40'0 0.0
2017-Nov-11 19:00N 35°27' E 139°40'0 0.0
2017-Nov-11 18:30N 35°27' E 139°40'0 0.0
2017-Nov-11 18:00N 35°27' E 139°40'0 0.0
2017-Nov-11 17:30N 35°27' E 139°40'0 0.0
2017-Nov-11 17:00N 35°27' E 139°40'0 0.0
2017-Nov-11 16:30N 35°27' E 139°40'0 0.0
2017-Nov-11 16:00N 35°27' E 139°40'0 0.0
2017-Nov-11 15:30N 35°27' E 139°40'0 0.0
2017-Nov-11 15:00N 35°27' E 139°40'0 0.0
2017-Nov-11 14:30N 35°27' E 139°40'0 0.0
2017-Nov-11 14:00N 35°27' E 139°40'0 0.0
2017-Nov-11 13:30N 35°27' E 139°40'0 0.0
2017-Nov-11 13:00N 35°27' E 139°40'0 0.0
2017-Nov-11 12:30N 35°27' E 139°40'0 0.0
2017-Nov-11 12:00N 35°27' E 139°40'0 0.0
2017-Nov-11 11:30N 35°27' E 139°40'0 0.0
2017-Nov-11 11:00N 35°27' E 139°40'3 6.2
2017-Nov-11 10:30N 35°28' E 139°43'0 0.4
2017-Nov-11 10:00N 35°28' E 139°43'1 1.7
2017-Nov-11 09:30N 35°27' E 139°42'0 0.1
2017-Nov-11 09:00N 35°27' E 139°42'0 0.1
2017-Nov-11 08:30N 35°27' E 139°42'0 0.1
2017-Nov-11 08:00N 35°27' E 139°42'1 2.1
2017-Nov-11 07:30N 35°28' E 139°42'1 2.2
2017-Nov-11 07:00N 35°28' E 139°41'1 2.6
2017-Nov-11 06:30N 35°27' E 139°40'0 0.0
2017-Nov-11 06:00N 35°27' E 139°40'1 1.0
2017-Nov-11 05:30N 35°27' E 139°40'4 7.6
2017-Nov-11 05:00N 35°29' E 139°44'0 0.3
2017-Nov-11 04:30N 35°29' E 139°45'1 2.9
2017-Nov-11 04:00N 35°28' E 139°46'1 1.2
2017-Nov-11 03:30N 35°27' E 139°46'1 2.8
2017-Nov-11 03:00N 35°27' E 139°44'2 3.9
2017-Nov-11 02:30N 35°28' E 139°42'0 0.0
2017-Nov-11 02:00N 35°28' E 139°42'0 0.0
2017-Nov-11 01:30N 35°28' E 139°42'0 0.0
2017-Nov-11 01:00N 35°28' E 139°42'4 7.2
2017-Nov-11 00:30N 35°30' E 139°45'0 0.4
2017-Nov-11 00:00N 35°30' E 139°45'0 0.1
2017-Nov-10 23:30N 35°30' E 139°45'4 7.2
2017-Nov-10 23:00N 35°28' E 139°41'2 3.7
2017-Nov-10 22:30N 35°27' E 139°40'0 0.0
2017-Nov-10 22:00N 35°27' E 139°40'0 0.0
2017-Nov-10 21:30N 35°27' E 139°40'0 0.0
2017-Nov-10 21:00N 35°27' E 139°40'0 0.0
2017-Nov-10 20:31N 35°27' E 139°40'0 0.0
2017-Nov-10 20:00N 35°27' E 139°40'0 0.0
2017-Nov-10 19:30N 35°27' E 139°40'0 0.0
2017-Nov-10 19:00N 35°27' E 139°40'0 0.0
2017-Nov-10 18:30N 35°27' E 139°40'0 0.0
2017-Nov-10 18:00N 35°27' E 139°40'0 0.0
2017-Nov-10 17:30N 35°27' E 139°40'0 0.0
2017-Nov-10 17:00N 35°27' E 139°40'0 0.0
2017-Nov-10 16:30N 35°27' E 139°40'0 0.0
2017-Nov-10 16:00N 35°27' E 139°40'0 0.0
2017-Nov-10 15:30N 35°27' E 139°40'0 0.0
2017-Nov-10 15:00N 35°27' E 139°40'0 0.0
2017-Nov-10 14:30N 35°27' E 139°40'0 0.0
2017-Nov-10 14:00N 35°27' E 139°40'0 0.0
2017-Nov-10 13:30N 35°27' E 139°40'0 0.0
2017-Nov-10 13:00N 35°27' E 139°40'0 0.0
2017-Nov-10 12:30N 35°27' E 139°40'0 0.0
2017-Nov-10 12:00N 35°27' E 139°40'0 0.0
2017-Nov-10 11:30N 35°27' E 139°40'0 0.0
2017-Nov-10 11:00N 35°27' E 139°40'0 0.0
2017-Nov-10 10:30N 35°27' E 139°40'0 0.0
2017-Nov-10 10:00N 35°27' E 139°40'0 0.0
2017-Nov-10 09:30N 35°27' E 139°40'0 0.0
2017-Nov-10 09:00N 35°27' E 139°40'0 0.0
2017-Nov-10 08:30N 35°27' E 139°40'0 0.0
2017-Nov-10 08:00N 35°27' E 139°40'0 0.0
2017-Nov-10 07:30N 35°27' E 139°40'0 0.0
2017-Nov-10 07:00N 35°27' E 139°40'0 0.0
2017-Nov-10 06:30N 35°27' E 139°40'0 0.0
2017-Nov-10 06:00N 35°27' E 139°40'0 0.0
2017-Nov-10 05:30N 35°27' E 139°40'0 0.0
2017-Nov-10 05:00N 35°27' E 139°40'0 0.0
2017-Nov-10 04:30N 35°27' E 139°40'0 0.0
2017-Nov-10 04:01N 35°27' E 139°40'0 0.0
2017-Nov-10 03:31N 35°27' E 139°40'1 1.0
2017-Nov-10 03:00N 35°27' E 139°40'510.4
2017-Nov-10 02:30N 35°29' E 139°46'1 1.2
2017-Nov-10 01:58N 35°29' E 139°47'0 0.1
2017-Nov-10 01:29N 35°29' E 139°47'0 0.5
2017-Nov-10 01:01N 35°29' E 139°47'1 1.2
2017-Nov-10 00:30N 35°28' E 139°47'0 0.9
2017-Nov-10 00:00N 35°28' E 139°47'3 5.7
2017-Nov-09 23:30N 35°27' E 139°44'3 6.9
2017-Nov-09 23:00N 35°27' E 139°39'0 0.0
2017-Nov-09 22:30N 35°27' E 139°39'0 0.0
2017-Nov-09 22:00N 35°27' E 139°39'0 0.0
2017-Nov-09 21:30N 35°27' E 139°39'0 0.0
2017-Nov-09 21:00N 35°27' E 139°39'0 0.0
2017-Nov-09 20:30N 35°27' E 139°39'0 0.0
2017-Nov-09 20:00N 35°27' E 139°39'0 0.0
2017-Nov-09 19:30N 35°27' E 139°39'0 0.0
2017-Nov-09 19:00N 35°27' E 139°39'0 0.0
2017-Nov-09 18:30N 35°27' E 139°39'0 0.0
2017-Nov-09 18:00N 35°27' E 139°39'0 0.0
2017-Nov-09 17:30N 35°27' E 139°39'0 0.0
2017-Nov-09 17:00N 35°27' E 139°39'0 0.0
2017-Nov-09 16:31N 35°27' E 139°39'0 0.0
2017-Nov-09 16:01N 35°27' E 139°39'0 0.0
2017-Nov-09 15:30N 35°27' E 139°39'0 0.0
2017-Nov-09 15:01N 35°27' E 139°39'0 0.0
2017-Nov-09 14:30N 35°27' E 139°39'0 0.0
2017-Nov-09 14:01N 35°27' E 139°39'0 0.0
2017-Nov-09 13:30N 35°27' E 139°39'0 0.0
2017-Nov-09 13:00N 35°27' E 139°39'0 0.0
2017-Nov-09 12:30N 35°27' E 139°39'0 0.0
2017-Nov-09 12:00N 35°27' E 139°39'0 0.0
2017-Nov-09 11:30N 35°27' E 139°39'0 0.0
2017-Nov-09 11:00N 35°27' E 139°39'0 0.0
2017-Nov-09 10:31N 35°27' E 139°39'0 0.0
2017-Nov-09 10:00N 35°27' E 139°39'0 0.0
2017-Nov-09 09:30N 35°27' E 139°39'0 0.0
2017-Nov-09 09:01N 35°27' E 139°39'0 0.0
2017-Nov-09 08:31N 35°27' E 139°39'0 0.0
2017-Nov-09 08:01N 35°27' E 139°39'0 0.0
2017-Nov-09 07:31N 35°27' E 139°39'0 0.0
2017-Nov-09 07:00N 35°27' E 139°39'2 4.2
2017-Nov-09 06:30N 35°27' E 139°42'0 0.0
2017-Nov-09 06:00N 35°27' E 139°42'0 0.0
2017-Nov-09 05:30N 35°27' E 139°42'0 0.0
2017-Nov-09 05:00N 35°27' E 139°42'0 0.0
2017-Nov-09 04:30N 35°27' E 139°42'0 0.0
2017-Nov-09 04:01N 35°27' E 139°42'0 0.0
2017-Nov-09 03:31N 35°27' E 139°42'0 0.0
2017-Nov-09 03:00N 35°27' E 139°42'0 0.0
2017-Nov-09 02:30N 35°27' E 139°42'3 4.5
2017-Nov-09 01:53N 35°29' E 139°44'0 0.0
2017-Nov-09 01:25N 35°29' E 139°44'0 0.0
2017-Nov-09 01:00N 35°29' E 139°44'0 0.0
2017-Nov-09 00:31N 35°29' E 139°44'1 1.7
2017-Nov-09 00:00N 35°28' E 139°45'2 3.7
2017-Nov-08 23:30N 35°27' E 139°43'3 5.0
2017-Nov-08 23:00N 35°26' E 139°41'1 2.5
2017-Nov-08 22:31N 35°26' E 139°42'2 4.7
2017-Nov-08 22:00N 35°27' E 139°39'0 0.0
2017-Nov-08 21:30N 35°27' E 139°39'0 0.0
2017-Nov-08 21:00N 35°27' E 139°39'0 0.0
2017-Nov-08 20:30N 35°27' E 139°39'0 0.0
2017-Nov-08 20:00N 35°27' E 139°39'0 0.0
2017-Nov-08 19:30N 35°27' E 139°39'0 0.0
2017-Nov-08 19:00N 35°27' E 139°39'0 0.0
2017-Nov-08 18:30N 35°27' E 139°39'0 0.0
2017-Nov-08 18:00N 35°27' E 139°39'0 0.0
2017-Nov-08 17:30N 35°27' E 139°39'0 0.0
2017-Nov-08 17:00N 35°27' E 139°39'0 0.0
2017-Nov-08 16:30N 35°27' E 139°39'0 0.0
2017-Nov-08 16:00N 35°27' E 139°39'0 0.0
2017-Nov-08 15:30N 35°27' E 139°39'0 0.0
2017-Nov-08 15:00N 35°27' E 139°39'0 0.0
2017-Nov-08 14:30N 35°27' E 139°39'0 0.0
2017-Nov-08 14:00N 35°27' E 139°39'0 0.0
2017-Nov-08 13:30N 35°27' E 139°39'0 0.0
2017-Nov-08 13:00N 35°27' E 139°39'0 0.0
2017-Nov-08 12:30N 35°27' E 139°39'0 0.0
2017-Nov-08 12:00N 35°27' E 139°39'0 0.0
2017-Nov-08 11:30N 35°27' E 139°39'0 0.0
2017-Nov-08 11:00N 35°27' E 139°39'0 0.0
2017-Nov-08 10:30N 35°27' E 139°39'0 0.0
2017-Nov-08 10:00N 35°27' E 139°39'0 0.0
2017-Nov-08 09:30N 35°27' E 139°39'0 0.0
2017-Nov-08 08:17N 35°27' E 139°39'0 0.0
2017-Nov-08 08:01N 35°27' E 139°39'0 0.0
2017-Nov-08 07:31N 35°27' E 139°39'0 0.0
2017-Nov-08 07:00N 35°27' E 139°39'1 1.1
2017-Nov-08 06:30N 35°27' E 139°40'1 1.9
2017-Nov-08 06:00N 35°27' E 139°41'0 0.1
2017-Nov-08 05:31N 35°27' E 139°41'1 2.9
2017-Nov-08 05:01N 35°27' E 139°39'0 0.0
2017-Nov-08 04:30N 35°27' E 139°39'0 0.0
2017-Nov-08 04:00N 35°27' E 139°39'0 0.0
2017-Nov-08 03:31N 35°27' E 139°39'0 0.0
2017-Nov-08 03:01N 35°27' E 139°39'0 0.0
2017-Nov-08 02:30N 35°27' E 139°39'0 0.0
2017-Nov-08 02:01N 35°27' E 139°39'0 0.0
2017-Nov-08 01:31N 35°27' E 139°39'0 0.0
2017-Nov-08 01:00N 35°27' E 139°39'0 0.0
2017-Nov-08 00:30N 35°27' E 139°39'0 0.0
2017-Nov-08 00:01N 35°27' E 139°39'0 0.1
2017-Nov-07 23:30N 35°27' E 139°39'1 1.6
2017-Nov-07 23:01N 35°28' E 139°40'2 3.4
2017-Nov-07 22:31N 35°28' E 139°42'2 4.8
2017-Nov-07 22:01N 35°26' E 139°44'4 8.1
2017-Nov-07 21:30N 35°27' E 139°39'0 0.0
2017-Nov-07 21:01N 35°27' E 139°39'  
Track history (hours):
 
Tides and Currents Weather Stations Pressure Air Temp Water Temp Dewpoint Dewpoint Depression Visibility Wind Speed Wind Dir Waves Ship Positions

Kiyosumi

Last reported at 2017-Nov-17 21:01 UTC. Time now 2017-Nov-17 21:17 UTC.
Position N 35°27' E 139°40'.

Length 34 m; draft 3.5 m.

Type: Tug. MMSI: 431005532.

Date/timePositionNaut miles runAvg speedWind from/ knotsBaromVisibWave heightAir tempDewpointWater temp
2017-Nov-17 21:01N 35°27' E 139°40'0 0.0
2017-Nov-17 20:31N 35°27' E 139°40'0 0.0
2017-Nov-17 20:00N 35°27' E 139°40'0 0.0
2017-Nov-17 19:30N 35°27' E 139°40'0 0.0
2017-Nov-17 19:00N 35°27' E 139°40'0 0.0
2017-Nov-17 18:31N 35°27' E 139°40'0 0.0
2017-Nov-17 18:01N 35°27' E 139°40'0 0.0
2017-Nov-17 17:30N 35°27' E 139°40'0 0.0
2017-Nov-17 17:00N 35°27' E 139°40'0 0.0
2017-Nov-17 16:30N 35°27' E 139°40'0 0.0
2017-Nov-17 16:01N 35°27' E 139°40'0 0.0
2017-Nov-17 15:30N 35°27' E 139°40'0 0.0
2017-Nov-17 15:00N 35°27' E 139°40'0 0.0
2017-Nov-17 14:31N 35°27' E 139°40'0 0.0
2017-Nov-17 14:01N 35°27' E 139°40'0 0.0
2017-Nov-17 13:31N 35°27' E 139°40'0 0.0
2017-Nov-17 13:01N 35°27' E 139°40'0 0.0
2017-Nov-17 12:31N 35°27' E 139°40'0 0.0
2017-Nov-17 12:00N 35°27' E 139°40'0 0.0
2017-Nov-17 11:31N 35°27' E 139°40'0 0.0
2017-Nov-17 11:00N 35°27' E 139°40'0 0.0
2017-Nov-17 10:30N 35°27' E 139°40'0 0.0
2017-Nov-17 10:01N 35°27' E 139°40'0 0.0
2017-Nov-17 09:30N 35°27' E 139°40'0 0.0
2017-Nov-17 09:01N 35°27' E 139°40'0 0.0
2017-Nov-17 08:31N 35°27' E 139°40'0 0.0
2017-Nov-17 08:01N 35°27' E 139°40'0 0.0
2017-Nov-17 07:31N 35°27' E 139°40'0 0.0
2017-Nov-17 07:01N 35°27' E 139°40'0 0.0
2017-Nov-17 06:31N 35°27' E 139°40'0 0.0
2017-Nov-17 06:01N 35°27' E 139°40'0 0.0
2017-Nov-17 05:30N 35°27' E 139°40'0 0.0
2017-Nov-17 05:01N 35°27' E 139°40'0 0.0
2017-Nov-17 04:30N 35°27' E 139°40'0 0.0
2017-Nov-17 04:00N 35°27' E 139°40'0 0.0
2017-Nov-17 03:31N 35°27' E 139°40'0 0.0
2017-Nov-17 03:01N 35°27' E 139°40'0 0.0
2017-Nov-17 02:30N 35°27' E 139°40'0 0.0
2017-Nov-17 02:00N 35°27' E 139°40'0 0.0
2017-Nov-17 01:31N 35°27' E 139°40'0 0.0
2017-Nov-17 01:00N 35°27' E 139°40'0 0.0
2017-Nov-17 00:31N 35°27' E 139°40'0 0.0
2017-Nov-17 00:00N 35°27' E 139°40'0 0.0
2017-Nov-16 23:30N 35°27' E 139°40'0 0.3
2017-Nov-16 23:00N 35°27' E 139°40'1 2.2
2017-Nov-16 22:31N 35°27' E 139°41'3 6.4
2017-Nov-16 22:00N 35°26' E 139°45'2 3.5
2017-Nov-16 21:30N 35°26' E 139°43'1 1.6
2017-Nov-16 21:01N 35°26' E 139°42'3 5.2
2017-Nov-16 20:30N 35°24' E 139°40'1 1.2
2017-Nov-16 20:00N 35°24' E 139°41'0 0.3
2017-Nov-16 19:31N 35°24' E 139°41'2 4.6
2017-Nov-16 19:00N 35°26' E 139°42'2 3.7
2017-Nov-16 18:30N 35°27' E 139°39'0 0.0
2017-Nov-16 18:00N 35°27' E 139°39'0 0.0
2017-Nov-16 17:30N 35°27' E 139°39'0 0.0
2017-Nov-16 17:00N 35°27' E 139°39'0 0.0
2017-Nov-16 16:30N 35°27' E 139°39'0 0.0
2017-Nov-16 16:00N 35°27' E 139°39'0 0.0
2017-Nov-16 15:30N 35°27' E 139°39'0 0.0
2017-Nov-16 15:00N 35°27' E 139°39'0 0.0
2017-Nov-16 14:30N 35°27' E 139°39'0 0.0
2017-Nov-16 14:00N 35°27' E 139°39'0 0.0
2017-Nov-16 13:30N 35°27' E 139°39'0 0.0
2017-Nov-16 13:00N 35°27' E 139°39'0 0.0
2017-Nov-16 12:30N 35°27' E 139°39'2 4.7
2017-Nov-16 12:00N 35°26' E 139°42'3 5.6
2017-Nov-16 11:31N 35°24' E 139°39'1 1.4
2017-Nov-16 11:00N 35°24' E 139°38'0 0.2
2017-Nov-16 10:30N 35°24' E 139°38'0 0.2
2017-Nov-16 10:00N 35°24' E 139°38'2 4.4
2017-Nov-16 09:30N 35°24' E 139°41'0 0.0
2017-Nov-16 09:01N 35°24' E 139°41'1 2.2
2017-Nov-16 08:30N 35°23' E 139°41'1 1.4
2017-Nov-16 08:00N 35°23' E 139°42'4 8.2
2017-Nov-16 07:30N 35°27' E 139°40'0 0.8
2017-Nov-16 07:00N 35°27' E 139°40'0 0.0
2017-Nov-16 06:30N 35°27' E 139°40'0 0.0
2017-Nov-16 06:00N 35°27' E 139°40'0 0.0
2017-Nov-16 05:30N 35°27' E 139°40'0 0.0
2017-Nov-16 05:00N 35°27' E 139°40'0 0.0
2017-Nov-16 04:30N 35°27' E 139°40'0 0.0
2017-Nov-16 04:00N 35°27' E 139°40'0 0.0
2017-Nov-16 03:30N 35°27' E 139°40'0 0.0
2017-Nov-16 03:00N 35°27' E 139°40'0 0.0
2017-Nov-16 02:30N 35°27' E 139°40'0 0.0
2017-Nov-16 02:00N 35°27' E 139°40'0 0.0
2017-Nov-16 01:30N 35°27' E 139°40'0 0.0
2017-Nov-16 01:00N 35°27' E 139°40'0 0.0
2017-Nov-16 00:30N 35°27' E 139°40'0 0.0
2017-Nov-16 00:00N 35°27' E 139°40'0 0.0
2017-Nov-15 23:30N 35°27' E 139°40'0 0.0
2017-Nov-15 23:00N 35°27' E 139°40'0 0.0
2017-Nov-15 22:30N 35°27' E 139°40'0 0.0
2017-Nov-15 05:42N 35°27' E 139°40'1 6.9
2017-Nov-15 05:31N 35°27' E 139°41'3 6.5
2017-Nov-15 05:00N 35°29' E 139°44'0 0.1
2017-Nov-15 04:30N 35°29' E 139°44'2 4.7
2017-Nov-15 04:00N 35°28' E 139°42'0 0.0
2017-Nov-15 03:31N 35°27' E 139°42'0 0.0
2017-Nov-15 03:00N 35°28' E 139°42'0 0.0
2017-Nov-15 02:31N 35°28' E 139°42'0 0.5
2017-Nov-15 02:00N 35°28' E 139°42'3 5.8
2017-Nov-15 01:30N 35°30' E 139°44'2 3.5
2017-Nov-15 01:00N 35°31' E 139°46'0 0.0
2017-Nov-15 00:31N 35°31' E 139°46'0 0.1
2017-Nov-15 00:00N 35°31' E 139°46'0 0.4
2017-Nov-14 23:30N 35°31' E 139°46'4 8.0
2017-Nov-14 23:00N 35°29' E 139°42'2 4.8
2017-Nov-14 22:31N 35°27' E 139°40'0 0.9
2017-Nov-14 22:00N 35°27' E 139°39'0 0.0
2017-Nov-14 21:31N 35°27' E 139°39'0 0.0
2017-Nov-14 21:01N 35°27' E 139°39'0 0.0
2017-Nov-14 20:30N 35°27' E 139°39'0 0.0
2017-Nov-14 20:01N 35°27' E 139°39'0 0.0
2017-Nov-14 19:30N 35°27' E 139°39'0 0.0
2017-Nov-14 19:00N 35°27' E 139°39'0 0.0
2017-Nov-14 18:30N 35°27' E 139°39'0 0.0
2017-Nov-14 18:01N 35°27' E 139°39'0 0.0
2017-Nov-14 17:30N 35°27' E 139°39'0 0.0
2017-Nov-14 17:00N 35°27' E 139°39'0 0.0
2017-Nov-14 16:30N 35°27' E 139°39'0 0.0
2017-Nov-14 16:01N 35°27' E 139°39'0 0.0
2017-Nov-14 15:30N 35°27' E 139°39'0 0.0
2017-Nov-14 15:00N 35°27' E 139°39'0 0.0
2017-Nov-14 14:30N 35°27' E 139°39'0 0.0
2017-Nov-14 14:00N 35°27' E 139°39'0 0.0
2017-Nov-14 13:31N 35°27' E 139°39'0 0.0
2017-Nov-14 13:01N 35°27' E 139°39'0 0.0
2017-Nov-14 12:30N 35°27' E 139°39'0 0.0
2017-Nov-14 12:00N 35°27' E 139°39'0 0.0
2017-Nov-14 11:31N 35°27' E 139°39'0 0.0
2017-Nov-14 11:00N 35°27' E 139°39'0 0.0
2017-Nov-14 10:30N 35°27' E 139°39'0 0.0
2017-Nov-14 10:00N 35°27' E 139°39'0 0.0
2017-Nov-14 09:30N 35°27' E 139°39'0 0.0
2017-Nov-14 09:00N 35°27' E 139°39'0 0.0
2017-Nov-14 08:30N 35°27' E 139°39'0 0.0
2017-Nov-14 08:01N 35°27' E 139°39'0 0.0
2017-Nov-14 07:30N 35°27' E 139°39'0 0.0
2017-Nov-14 07:00N 35°27' E 139°39'0 0.0
2017-Nov-14 06:31N 35°27' E 139°39'0 0.0
2017-Nov-14 06:00N 35°27' E 139°39'0 0.0
2017-Nov-14 05:30N 35°27' E 139°39'0 0.0
2017-Nov-14 05:01N 35°27' E 139°39'0 0.0
2017-Nov-14 04:30N 35°27' E 139°39'0 0.0
2017-Nov-14 04:00N 35°27' E 139°39'0 0.0
2017-Nov-14 03:31N 35°27' E 139°39'0 0.0
2017-Nov-14 03:01N 35°27' E 139°39'0 0.0
2017-Nov-14 02:30N 35°27' E 139°39'0 0.0
2017-Nov-14 02:00N 35°27' E 139°39'0 0.0
2017-Nov-14 01:31N 35°27' E 139°39'3 6.2
2017-Nov-14 01:00N 35°27' E 139°43'2 3.9
2017-Nov-14 00:31N 35°29' E 139°44'0 0.3
2017-Nov-14 00:00N 35°29' E 139°45'1 2.9
2017-Nov-13 23:31N 35°28' E 139°46'0 1.0
2017-Nov-13 23:01N 35°27' E 139°46'2 3.7
2017-Nov-13 22:30N 35°29' E 139°45'0 0.4
2017-Nov-13 22:00N 35°29' E 139°44'3 0.2
2017-Nov-13 02:00N 35°28' E 139°41'510.5
2017-Nov-13 01:31N 35°31' E 139°46'1 1.1
2017-Nov-13 01:00N 35°31' E 139°46'0 0.1
2017-Nov-13 00:30N 35°31' E 139°46'2 3.1
2017-Nov-13 00:00N 35°30' E 139°47'2 3.7
2017-Nov-12 23:30N 35°28' E 139°47'1 1.7
2017-Nov-12 23:00N 35°28' E 139°47'4 8.3
2017-Nov-12 22:30N 35°27' E 139°42'2 3.8
2017-Nov-12 22:00N 35°27' E 139°40'0 0.0
2017-Nov-12 21:30N 35°27' E 139°40'0 0.0
2017-Nov-12 21:00N 35°27' E 139°40'0 0.0
2017-Nov-12 08:40N 35°27' E 139°40'1 8.8
2017-Nov-12 08:31N 35°28' E 139°41'0 0.3
2017-Nov-12 08:00N 35°28' E 139°41'1 2.3
2017-Nov-12 07:30N 35°28' E 139°42'3 5.6
2017-Nov-12 07:00N 35°26' E 139°45'2 3.9
2017-Nov-12 06:31N 35°28' E 139°44'0 0.0
2017-Nov-12 06:00N 35°28' E 139°44'0 0.0
2017-Nov-12 05:31N 35°28' E 139°44'0 0.0
2017-Nov-12 05:00N 35°28' E 139°44'2 4.0
2017-Nov-12 04:31N 35°28' E 139°46'5 9.6
2017-Nov-12 04:01N 35°30' E 139°52'5 8.6
2017-Nov-12 03:22N 35°28' E 139°58'0 0.2
2017-Nov-12 03:00N 35°28' E 139°58'0 0.0
2017-Nov-12 02:18N 35°28' E 139°58'0 1.0
2017-Nov-12 01:58N 35°29' E 139°58'2 3.7
2017-Nov-12 01:28N 35°30' E 139°56'2 3.7
2017-Nov-12 00:55N 35°29' E 139°54'0 0.0
2017-Nov-12 00:30N 35°29' E 139°54'0 0.0
2017-Nov-12 00:00N 35°29' E 139°54'0 0.1
2017-Nov-11 23:30N 35°29' E 139°54'3 6.5
2017-Nov-11 22:59N 35°28' E 139°50'3 7.2
2017-Nov-11 22:31N 35°28' E 139°46'1 2.0
2017-Nov-11 22:00N 35°29' E 139°45'1 3.0
2017-Nov-11 21:30N 35°28' E 139°45'1 1.0
2017-Nov-11 21:00N 35°28' E 139°46'3 6.9
2017-Nov-11 20:31N 35°27' E 139°42'2 3.4
2017-Nov-11 20:01N 35°27' E 139°40'0 0.0
2017-Nov-11 19:30N 35°27' E 139°40'0 0.0
2017-Nov-11 19:00N 35°27' E 139°40'0 0.0
2017-Nov-11 18:30N 35°27' E 139°40'0 0.0
2017-Nov-11 18:00N 35°27' E 139°40'0 0.0
2017-Nov-11 17:30N 35°27' E 139°40'0 0.0
2017-Nov-11 17:00N 35°27' E 139°40'0 0.0
2017-Nov-11 16:30N 35°27' E 139°40'0 0.0
2017-Nov-11 16:00N 35°27' E 139°40'0 0.0
2017-Nov-11 15:30N 35°27' E 139°40'0 0.0
2017-Nov-11 15:00N 35°27' E 139°40'0 0.0
2017-Nov-11 14:30N 35°27' E 139°40'0 0.0
2017-Nov-11 14:00N 35°27' E 139°40'0 0.0
2017-Nov-11 13:30N 35°27' E 139°40'0 0.0
2017-Nov-11 13:00N 35°27' E 139°40'0 0.0
2017-Nov-11 12:30N 35°27' E 139°40'0 0.0
2017-Nov-11 12:00N 35°27' E 139°40'0 0.0
2017-Nov-11 11:30N 35°27' E 139°40'0 0.0
2017-Nov-11 11:00N 35°27' E 139°40'3 6.2
2017-Nov-11 10:30N 35°28' E 139°43'0 0.4
2017-Nov-11 10:00N 35°28' E 139°43'1 1.7
2017-Nov-11 09:30N 35°27' E 139°42'0 0.1
2017-Nov-11 09:00N 35°27' E 139°42'0 0.1
2017-Nov-11 08:30N 35°27' E 139°42'0 0.1
2017-Nov-11 08:00N 35°27' E 139°42'1 2.1
2017-Nov-11 07:30N 35°28' E 139°42'1 2.2
2017-Nov-11 07:00N 35°28' E 139°41'1 2.6
2017-Nov-11 06:30N 35°27' E 139°40'0 0.0
2017-Nov-11 06:00N 35°27' E 139°40'1 1.0
2017-Nov-11 05:30N 35°27' E 139°40'4 7.6
2017-Nov-11 05:00N 35°29' E 139°44'0 0.3
2017-Nov-11 04:30N 35°29' E 139°45'1 2.9
2017-Nov-11 04:00N 35°28' E 139°46'1 1.2
2017-Nov-11 03:30N 35°27' E 139°46'1 2.8
2017-Nov-11 03:00N 35°27' E 139°44'2 3.9
2017-Nov-11 02:30N 35°28' E 139°42'0 0.0
2017-Nov-11 02:00N 35°28' E 139°42'0 0.0
2017-Nov-11 01:30N 35°28' E 139°42'0 0.0
2017-Nov-11 01:00N 35°28' E 139°42'4 7.2
2017-Nov-11 00:30N 35°30' E 139°45'0 0.4
2017-Nov-11 00:00N 35°30' E 139°45'0 0.1
2017-Nov-10 23:30N 35°30' E 139°45'4 7.2
2017-Nov-10 23:00N 35°28' E 139°41'2 3.7
2017-Nov-10 22:30N 35°27' E 139°40'0 0.0
2017-Nov-10 22:00N 35°27' E 139°40'0 0.0
2017-Nov-10 21:30N 35°27' E 139°40'0 0.0
2017-Nov-10 21:00N 35°27' E 139°40'0 0.0
2017-Nov-10 20:31N 35°27' E 139°40'0 0.0
2017-Nov-10 20:00N 35°27' E 139°40'0 0.0
2017-Nov-10 19:30N 35°27' E 139°40'0 0.0
2017-Nov-10 19:00N 35°27' E 139°40'0 0.0
2017-Nov-10 18:30N 35°27' E 139°40'0 0.0
2017-Nov-10 18:00N 35°27' E 139°40'0 0.0
2017-Nov-10 17:30N 35°27' E 139°40'0 0.0
2017-Nov-10 17:00N 35°27' E 139°40'0 0.0
2017-Nov-10 16:30N 35°27' E 139°40'0 0.0
2017-Nov-10 16:00N 35°27' E 139°40'0 0.0
2017-Nov-10 15:30N 35°27' E 139°40'0 0.0
2017-Nov-10 15:00N 35°27' E 139°40'0 0.0
2017-Nov-10 14:30N 35°27' E 139°40'0 0.0
2017-Nov-10 14:00N 35°27' E 139°40'0 0.0
2017-Nov-10 13:30N 35°27' E 139°40'0 0.0
2017-Nov-10 13:00N 35°27' E 139°40'0 0.0
2017-Nov-10 12:30N 35°27' E 139°40'0 0.0
2017-Nov-10 12:00N 35°27' E 139°40'0 0.0
2017-Nov-10 11:30N 35°27' E 139°40'0 0.0
2017-Nov-10 11:00N 35°27' E 139°40'0 0.0
2017-Nov-10 10:30N 35°27' E 139°40'0 0.0
2017-Nov-10 10:00N 35°27' E 139°40'0 0.0
2017-Nov-10 09:30N 35°27' E 139°40'0 0.0
2017-Nov-10 09:00N 35°27' E 139°40'0 0.0
2017-Nov-10 08:30N 35°27' E 139°40'0 0.0
2017-Nov-10 08:00N 35°27' E 139°40'0 0.0
2017-Nov-10 07:30N 35°27' E 139°40'0 0.0
2017-Nov-10 07:00N 35°27' E 139°40'0 0.0
2017-Nov-10 06:30N 35°27' E 139°40'0 0.0
2017-Nov-10 06:00N 35°27' E 139°40'0 0.0
2017-Nov-10 05:30N 35°27' E 139°40'0 0.0
2017-Nov-10 05:00N 35°27' E 139°40'0 0.0
2017-Nov-10 04:30N 35°27' E 139°40'0 0.0
2017-Nov-10 04:01N 35°27' E 139°40'0 0.0
2017-Nov-10 03:31N 35°27' E 139°40'1 1.0
2017-Nov-10 03:00N 35°27' E 139°40'510.4
2017-Nov-10 02:30N 35°29' E 139°46'1 1.2
2017-Nov-10 01:58N 35°29' E 139°47'0 0.1
2017-Nov-10 01:29N 35°29' E 139°47'0 0.5
2017-Nov-10 01:01N 35°29' E 139°47'1 1.2
2017-Nov-10 00:30N 35°28' E 139°47'0 0.9
2017-Nov-10 00:00N 35°28' E 139°47'3 5.7
2017-Nov-09 23:30N 35°27' E 139°44'3 6.9
2017-Nov-09 23:00N 35°27' E 139°39'0 0.0
2017-Nov-09 22:30N 35°27' E 139°39'0 0.0
2017-Nov-09 22:00N 35°27' E 139°39'0 0.0
2017-Nov-09 21:30N 35°27' E 139°39'0 0.0
2017-Nov-09 21:00N 35°27' E 139°39'0 0.0
2017-Nov-09 20:30N 35°27' E 139°39'0 0.0
2017-Nov-09 20:00N 35°27' E 139°39'0 0.0
2017-Nov-09 19:30N 35°27' E 139°39'0 0.0
2017-Nov-09 19:00N 35°27' E 139°39'0 0.0
2017-Nov-09 18:30N 35°27' E 139°39'0 0.0
2017-Nov-09 18:00N 35°27' E 139°39'0 0.0
2017-Nov-09 17:30N 35°27' E 139°39'0 0.0
2017-Nov-09 17:00N 35°27' E 139°39'0 0.0
2017-Nov-09 16:31N 35°27' E 139°39'0 0.0
2017-Nov-09 16:01N 35°27' E 139°39'0 0.0
2017-Nov-09 15:30N 35°27' E 139°39'0 0.0
2017-Nov-09 15:01N 35°27' E 139°39'0 0.0
2017-Nov-09 14:30N 35°27' E 139°39'0 0.0
2017-Nov-09 14:01N 35°27' E 139°39'0 0.0
2017-Nov-09 13:30N 35°27' E 139°39'0 0.0
2017-Nov-09 13:00N 35°27' E 139°39'0 0.0
2017-Nov-09 12:30N 35°27' E 139°39'0 0.0
2017-Nov-09 12:00N 35°27' E 139°39'0 0.0
2017-Nov-09 11:30N 35°27' E 139°39'0 0.0
2017-Nov-09 11:00N 35°27' E 139°39'0 0.0
2017-Nov-09 10:31N 35°27' E 139°39'0 0.0
2017-Nov-09 10:00N 35°27' E 139°39'0 0.0
2017-Nov-09 09:30N 35°27' E 139°39'0 0.0
2017-Nov-09 09:01N 35°27' E 139°39'0 0.0
2017-Nov-09 08:31N 35°27' E 139°39'0 0.0
2017-Nov-09 08:01N 35°27' E 139°39'0 0.0
2017-Nov-09 07:31N 35°27' E 139°39'0 0.0
2017-Nov-09 07:00N 35°27' E 139°39'2 4.2
2017-Nov-09 06:30N 35°27' E 139°42'0 0.0
2017-Nov-09 06:00N 35°27' E 139°42'0 0.0
2017-Nov-09 05:30N 35°27' E 139°42'0 0.0
2017-Nov-09 05:00N 35°27' E 139°42'0 0.0
2017-Nov-09 04:30N 35°27' E 139°42'0 0.0
2017-Nov-09 04:01N 35°27' E 139°42'0 0.0
2017-Nov-09 03:31N 35°27' E 139°42'0 0.0
2017-Nov-09 03:00N 35°27' E 139°42'0 0.0
2017-Nov-09 02:30N 35°27' E 139°42'3 4.5
2017-Nov-09 01:53N 35°29' E 139°44'0 0.0
2017-Nov-09 01:25N 35°29' E 139°44'0 0.0
2017-Nov-09 01:00N 35°29' E 139°44'0 0.0
2017-Nov-09 00:31N 35°29' E 139°44'1 1.7
2017-Nov-09 00:00N 35°28' E 139°45'2 3.7
2017-Nov-08 23:30N 35°27' E 139°43'3 5.0
2017-Nov-08 23:00N 35°26' E 139°41'1 2.5
2017-Nov-08 22:31N 35°26' E 139°42'2 4.7
2017-Nov-08 22:00N 35°27' E 139°39'0 0.0
2017-Nov-08 21:30N 35°27' E 139°39'0 0.0
2017-Nov-08 21:00N 35°27' E 139°39'0 0.0
2017-Nov-08 20:30N 35°27' E 139°39'0 0.0
2017-Nov-08 20:00N 35°27' E 139°39'0 0.0
2017-Nov-08 19:30N 35°27' E 139°39'0 0.0
2017-Nov-08 19:00N 35°27' E 139°39'0 0.0
2017-Nov-08 18:30N 35°27' E 139°39'0 0.0
2017-Nov-08 18:00N 35°27' E 139°39'0 0.0
2017-Nov-08 17:30N 35°27' E 139°39'0 0.0
2017-Nov-08 17:00N 35°27' E 139°39'0 0.0
2017-Nov-08 16:30N 35°27' E 139°39'0 0.0
2017-Nov-08 16:00N 35°27' E 139°39'0 0.0
2017-Nov-08 15:30N 35°27' E 139°39'0 0.0
2017-Nov-08 15:00N 35°27' E 139°39'0 0.0
2017-Nov-08 14:30N 35°27' E 139°39'0 0.0
2017-Nov-08 14:00N 35°27' E 139°39'0 0.0
2017-Nov-08 13:30N 35°27' E 139°39'0 0.0
2017-Nov-08 13:00N 35°27' E 139°39'0 0.0
2017-Nov-08 12:30N 35°27' E 139°39'0 0.0
2017-Nov-08 12:00N 35°27' E 139°39'0 0.0
2017-Nov-08 11:30N 35°27' E 139°39'0 0.0
2017-Nov-08 11:00N 35°27' E 139°39'0 0.0
2017-Nov-08 10:30N 35°27' E 139°39'0 0.0
2017-Nov-08 10:00N 35°27' E 139°39'0 0.0
2017-Nov-08 09:30N 35°27' E 139°39'0 0.0
2017-Nov-08 08:17N 35°27' E 139°39'0 0.0
2017-Nov-08 08:01N 35°27' E 139°39'0 0.0
2017-Nov-08 07:31N 35°27' E 139°39'0 0.0
2017-Nov-08 07:00N 35°27' E 139°39'1 1.1
2017-Nov-08 06:30N 35°27' E 139°40'1 1.9
2017-Nov-08 06:00N 35°27' E 139°41'0 0.1
2017-Nov-08 05:31N 35°27' E 139°41'1 2.9
2017-Nov-08 05:01N 35°27' E 139°39'0 0.0
2017-Nov-08 04:30N 35°27' E 139°39'0 0.0
2017-Nov-08 04:00N 35°27' E 139°39'0 0.0
2017-Nov-08 03:31N 35°27' E 139°39'0 0.0
2017-Nov-08 03:01N 35°27' E 139°39'0 0.0
2017-Nov-08 02:30N 35°27' E 139°39'0 0.0
2017-Nov-08 02:01N 35°27' E 139°39'0 0.0
2017-Nov-08 01:31N 35°27' E 139°39'0 0.0
2017-Nov-08 01:00N 35°27' E 139°39'0 0.0
2017-Nov-08 00:30N 35°27' E 139°39'0 0.0
2017-Nov-08 00:01N 35°27' E 139°39'0 0.1
2017-Nov-07 23:30N 35°27' E 139°39'1 1.6
2017-Nov-07 23:01N 35°28' E 139°40'2 3.4
2017-Nov-07 22:31N 35°28' E 139°42'2 4.8
2017-Nov-07 22:01N 35°26' E 139°44'4 8.1
2017-Nov-07 21:30N 35°27' E 139°39'0 0.0
2017-Nov-07 21:01N 35°27' E 139°39'  

Dump ship's entire track history